Other Surface Observations
Issued by NWS Great Falls, MT

Home | Current Version | Previous Version | Text Only | Print | Product List | Glossary On
Versions: 1 2 3 4 5 6 7 8 9 10 11 12 13 14 15 16 17 18 19 20 21 22 23 24 25 26 27 28 29 30 31 32 33 34 35 36 37 38 39 40 41 42 43 44 45 46 47 48 49 50
938
SXUS55 KTFX 302059
OSOTFX
AREA AWOS OBSERVATIONS
NATIONAL WEATHER SERVICE GREAT FALLS MT
0259 PM MDT MON MAY 30 2016

METAR KPO1 302100Z AUTO 30004KT 10SM 14/12 A2994 RMK POPLAR
METAR K1S3 302100Z AUTO 33014G18KT 10SM 15/09 A2998 RMK FORSYTH
METAR KS71 302100Z AUTO 27020G25KT 10SM 10/06 A3004 RMK CHINOOK
METAR K38S 302100Z AUTO 32013G22KT 10SM 16/M02 A3015 RMK DEER LODGE
METAR K3U3 302100Z AUTO 28010G15KT 10SM 17/M06 A3013 RMK ANACONDA
METAR K6S5 302100Z AUTO 00000KT 10SM 19/M02 A3014 RMK HAMILTON
METAR KS59 302100Z AUTO 33006KT 8SM 19/01 A3016 RMK LIBBY
METAR K88M 302100Z AUTO 00000KT 10SM 17/03 A3017 RMK EUREKA



USA.gov is the U.S. government's official web portal to all federal, state and local government web resources and services.